createdAt,value
2017-07-01T00:00:40.183Z,21.19
2017-07-01T00:02:55.814Z,21.33
2017-07-01T00:05:19.845Z,21.05
2017-07-01T00:07:43.858Z,21.17
2017-07-01T00:10:07.872Z,20.89
2017-07-01T00:12:31.894Z,20.89
2017-07-01T00:14:55.911Z,20.67
2017-07-01T00:17:19.882Z,20.78
2017-07-01T00:19:43.880Z,20.74
2017-07-01T00:22:07.839Z,20.85
2017-07-01T00:24:31.842Z,20.86
2017-07-01T00:26:55.970Z,20.7
2017-07-01T00:29:19.996Z,20.88
2017-07-01T00:31:44.026Z,21.05
2017-07-01T00:33:59.608Z,21.03
2017-07-01T00:36:15.176Z,21.1
2017-07-01T00:38:39.185Z,20.93
2017-07-01T00:40:54.789Z,20.78
2017-07-01T00:43:18.745Z,20.77
2017-07-01T00:45:28.635Z,20.8
2017-07-01T00:47:52.662Z,20.86
2017-07-01T00:50:16.675Z,20.78
2017-07-01T00:52:40.667Z,20.85
2017-07-01T00:55:04.654Z,20.96
2017-07-01T00:57:06.125Z,20.92
2017-07-01T00:59:16.765Z,20.8
2017-07-01T01:01:32.379Z,20.96
2017-07-01T01:03:56.414Z,20.92
2017-07-01T01:06:20.435Z,20.33
2017-07-01T01:08:44.446Z,20.59
2017-07-01T01:10:45.810Z,20.58
2017-07-01T01:13:09.857Z,20.67
2017-07-01T01:15:33.851Z,20.71
2017-07-01T01:17:57.822Z,20.89
2017-07-01T01:20:21.806Z,20.6
2017-07-01T01:22:37.372Z,20.19
2017-07-01T01:24:44.525Z,20.17
2017-07-01T01:27:08.536Z,20.17
2017-07-01T01:29:24.068Z,20.42
2017-07-01T01:31:48.039Z,20.6
2017-07-01T01:34:03.566Z,20.52
2017-07-01T01:36:19.111Z,20.34
2017-07-01T01:38:43.054Z,20.5
2017-07-01T01:40:52.939Z,20.68
2017-07-01T01:43:08.526Z,20.64
2017-07-01T01:45:32.526Z,20.73
2017-07-01T01:47:48.077Z,20.52
2017-07-01T01:50:12.073Z,20.44
2017-07-01T01:52:36.036Z,20.19
2017-07-01T01:54:51.594Z,20.5
2017-07-01T01:57:15.593Z,20.7
2017-07-01T01:59:39.583Z,20.67
2017-07-01T02:02:03.571Z,20.88
2017-07-01T02:04:27.624Z,20.52
2017-07-01T02:06:43.187Z,20.64
2017-07-01T02:08:58.737Z,20.66
2017-07-01T02:11:22.756Z,20.27
2017-07-01T02:13:46.740Z,20.5
2017-07-01T02:16:10.730Z,20.39
2017-07-01T02:18:34.727Z,20.33
2017-07-01T02:20:50.264Z,20.17
2017-07-01T02:23:05.821Z,20.08
2017-07-01T02:25:29.796Z,19.96
2017-07-01T02:27:53.779Z,20.04
2017-07-01T02:30:17.758Z,20
2017-07-01T02:32:33.336Z,19.77
2017-07-01T02:34:57.301Z,19.57
2017-07-01T02:37:12.849Z,19.96
2017-07-01T02:39:36.797Z,19.74
2017-07-01T02:41:43.889Z,19.97
2017-07-01T02:44:07.829Z,19.93
2017-07-01T02:46:31.780Z,19.75
2017-07-01T02:48:55.725Z,19.55
2017-07-01T02:51:19.670Z,19.64
2017-07-01T02:53:43.627Z,19.52
2017-07-01T02:56:07.590Z,19.66
2017-07-01T02:58:31.502Z,19.57
2017-07-01T03:00:55.446Z,19.48
2017-07-01T03:03:19.377Z,19.27
2017-07-01T03:05:26.466Z,19.17
2017-07-01T03:07:41.987Z,18.91
2017-07-01T03:09:57.482Z,18.98
2017-07-01T03:12:21.386Z,19.19
2017-07-01T03:14:36.798Z,19
2017-07-01T03:17:00.707Z,18.64
2017-07-01T03:19:24.594Z,18.55
2017-07-01T03:21:48.481Z,18.58
2017-07-01T03:24:12.349Z,18.51
2017-07-01T03:26:36.236Z,18.68
2017-07-01T03:29:00.102Z,18.46
2017-07-01T03:31:23.961Z,18.21
2017-07-01T03:33:47.797Z,18.42
2017-07-01T03:36:11.634Z,18.39
2017-07-01T03:38:35.508Z,18.18
2017-07-01T03:40:59.321Z,17.88
2017-07-01T03:43:23.170Z,18.16
2017-07-01T03:45:38.599Z,18.36
2017-07-01T03:48:02.446Z,18.08
2017-07-01T03:50:26.308Z,18.11
2017-07-01T03:52:50.096Z,18.11
2017-07-01T03:55:13.950Z,18.45
2017-07-01T03:57:29.407Z,18.24
2017-07-01T03:59:53.233Z,18.33
2017-07-01T04:02:08.647Z,18.12
2017-07-01T04:04:32.441Z,18.24
2017-07-01T04:06:56.281Z,18.21
2017-07-01T04:09:20.067Z,17.98
2017-07-01T04:11:43.861Z,18.13
2017-07-01T04:14:07.692Z,18.05
2017-07-01T04:16:31.524Z,18.08
2017-07-01T04:18:46.921Z,17.88
2017-07-01T04:21:10.735Z,18.09
2017-07-01T04:23:34.536Z,18.08
2017-07-01T04:25:35.840Z,18.06
2017-07-01T04:27:59.676Z,18.24
2017-07-01T04:30:23.474Z,17.95
2017-07-01T04:32:47.293Z,18.03
2017-07-01T04:35:11.103Z,18.11
2017-07-01T04:37:34.916Z,18.18
2017-07-01T04:39:50.289Z,17.88
2017-07-01T04:42:14.094Z,17.91
2017-07-01T04:44:37.906Z,17.87
2017-07-01T04:47:01.707Z,17.78
2017-07-01T04:49:25.521Z,17.93
2017-07-01T04:51:49.328Z,18.02
2017-07-01T04:54:13.131Z,17.93
2017-07-01T04:56:14.459Z,18.21
2017-07-01T04:58:29.866Z,18.09
2017-07-01T05:00:53.711Z,17.95
2017-07-01T05:03:09.105Z,18.18
2017-07-01T05:05:32.904Z,18
2017-07-01T05:07:56.697Z,18.12
2017-07-01T05:10:20.503Z,18.13
2017-07-01T05:12:44.328Z,18.24
2017-07-01T05:15:08.165Z,18.46
2017-07-01T05:17:31.996Z,17.91
2017-07-01T05:19:55.807Z,18.05
2017-07-01T05:22:19.591Z,18.42
2017-07-01T05:24:35.016Z,18.51
2017-07-01T05:26:58.878Z,18.41
2017-07-01T05:29:22.726Z,18.68
2017-07-01T05:31:46.580Z,18.51
2017-07-01T05:34:10.685Z,18.57
2017-07-01T05:36:34.281Z,18.79
2017-07-01T05:38:44.303Z,18.51
2017-07-01T05:41:08.173Z,18.52
2017-07-01T05:43:32.048Z,18.94
2017-07-01T05:45:55.894Z,18.73
2017-07-01T05:47:57.218Z,18.81
2017-07-01T05:50:21.096Z,18.76
2017-07-01T05:52:44.992Z,18.92
2017-07-01T05:55:08.874Z,18.73
2017-07-01T05:57:24.325Z,18.82
2017-07-01T05:59:48.202Z,19.24
2017-07-01T06:02:12.094Z,19.3
2017-07-01T06:04:35.963Z,19
2017-07-01T06:06:51.456Z,18.73
2017-07-01T06:09:15.382Z,18.68
2017-07-01T06:11:39.272Z,18.81
2017-07-01T06:14:03.110Z,19.09
2017-07-01T06:16:27.054Z,19.29
2017-07-01T06:18:42.548Z,19.2
2017-07-01T06:21:06.465Z,19.41
2017-07-01T06:23:30.366Z,19.64
2017-07-01T06:25:54.292Z,19.71
2017-07-01T06:28:18.236Z,19.34
2017-07-01T06:30:33.852Z,19.56
2017-07-01T06:32:57.669Z,19.75
2017-07-01T06:35:13.194Z,19.62
2017-07-01T06:37:37.156Z,19.81
2017-07-01T06:40:01.113Z,19.94
2017-07-01T06:42:16.633Z,21.54
2017-07-01T06:44:40.656Z,22.28
2017-07-01T06:47:04.719Z,21.77
2017-07-01T06:49:28.807Z,21.56
2017-07-01T06:51:44.478Z,21.74
2017-07-01T06:54:08.654Z,21.84
2017-07-01T06:56:32.788Z,22.14
2017-07-01T06:58:56.936Z,22.8
2017-07-01T07:01:21.064Z,24.97
2017-07-01T07:03:45.406Z,25.43
2017-07-01T07:05:46.924Z,24.24
2017-07-01T07:08:02.779Z,22.76
2017-07-01T07:10:18.660Z,23.16
2017-07-01T07:12:43.192Z,23.84
2017-07-01T07:15:07.467Z,24.68
2017-07-01T07:17:31.813Z,27.34
2017-07-01T07:19:56.152Z,27.05
2017-07-01T07:22:20.624Z,27.22
2017-07-01T07:24:45.048Z,26.37
2017-07-01T07:27:01.132Z,28.28
2017-07-01T07:29:25.747Z,28.16
2017-07-01T07:31:50.372Z,27.43
2017-07-01T07:34:15.097Z,29.22
2017-07-01T07:36:39.839Z,28.8
2017-07-01T07:38:56.156Z,26.48
2017-07-01T07:41:20.926Z,25.55
2017-07-01T07:43:37.205Z,24.89
2017-07-01T07:46:01.842Z,24.5
2017-07-01T07:48:17.974Z,23.88
2017-07-01T07:50:42.600Z,23.18
2017-07-01T07:53:07.161Z,23.14
2017-07-01T07:55:31.639Z,23.2
2017-07-01T07:57:56.065Z,23.26
2017-07-01T08:00:20.446Z,22.8
2017-07-01T08:02:44.792Z,22.34
2017-07-01T08:05:09.111Z,23.06
2017-07-01T08:07:33.420Z,23.81
2017-07-01T08:09:57.908Z,24.69
2017-07-01T08:12:22.449Z,24.43
2017-07-01T08:14:46.740Z,25.63
2017-07-01T08:17:11.162Z,25.8
2017-07-01T08:19:13.645Z,25.54
2017-07-01T08:21:38.279Z,24.5
2017-07-01T08:24:02.737Z,23.47
2017-07-01T08:26:27.354Z,22.67
2017-07-01T08:28:51.974Z,21.91
2017-07-01T08:31:16.323Z,22.12
2017-07-01T08:33:41.414Z,21.25
2017-07-01T08:36:05.309Z,21
2017-07-01T08:38:29.970Z,21.44
2017-07-01T08:40:54.111Z,21.15
2017-07-01T08:43:18.409Z,21.08
2017-07-01T08:45:42.850Z,20.85
2017-07-01T08:48:07.482Z,20.7
2017-07-01T08:50:17.417Z,20.67
2017-07-01T08:52:41.581Z,21.08
2017-07-01T08:55:05.665Z,20.52
2017-07-01T08:57:29.828Z,20.78
2017-07-01T08:59:54.289Z,20.73
2017-07-01T09:02:18.309Z,20.85
2017-07-01T09:04:42.650Z,21.37
2017-07-01T09:07:06.845Z,21.38
2017-07-01T09:09:30.867Z,21.14
2017-07-01T09:11:55.264Z,21.74
2017-07-01T09:14:19.377Z,21.94
2017-07-01T09:16:43.606Z,22.08
2017-07-01T09:19:07.751Z,21.97
2017-07-01T09:21:32.177Z,22.14
2017-07-01T09:23:57.625Z,21.84
2017-07-01T09:26:22.310Z,21.62
2017-07-01T09:28:46.977Z,21.53
2017-07-01T09:31:10.612Z,21.88
2017-07-01T09:33:35.301Z,22.14
2017-07-01T09:35:50.906Z,22.34
2017-07-01T09:38:15.639Z,22.38
2017-07-01T09:40:39.486Z,23.07
2017-07-01T09:42:15.323Z,22.7
2017-07-01T09:44:39.878Z,23.21
2017-07-01T09:47:04.114Z,22.71
2017-07-01T09:49:28.325Z,22.63
2017-07-01T09:51:52.641Z,22.51
2017-07-01T09:54:17.565Z,22.52
2017-07-01T09:56:42.087Z,22.04
2017-07-01T09:59:11.942Z,22.26
2017-07-01T10:01:17.790Z,22.71
2017-07-01T10:02:55.273Z,22.44
2017-07-01T10:05:19.587Z,22.31
2017-07-01T10:07:43.852Z,21.65
2017-07-01T10:09:20.169Z,21.47
2017-07-01T10:11:44.493Z,21.91
2017-07-01T10:14:08.642Z,21.72
2017-07-01T10:16:32.714Z,21.47
2017-07-01T10:18:56.917Z,21.78
2017-07-01T10:21:20.936Z,22.04
2017-07-01T10:23:45.385Z,22.23
2017-07-01T10:26:09.487Z,22.19
2017-07-01T10:28:34.975Z,22.76
2017-07-01T10:30:59.257Z,23.48
2017-07-01T10:33:24.229Z,23.48
2017-07-01T10:35:49.044Z,23.71
2017-07-01T10:38:13.281Z,24.5
2017-07-01T10:40:37.822Z,25.06
2017-07-01T10:43:02.142Z,24.96
2017-07-01T10:45:26.707Z,26.3
2017-07-01T10:47:51.108Z,26.52
2017-07-01T10:50:15.636Z,26.53
2017-07-01T10:52:40.150Z,25.77
2017-07-01T10:55:04.673Z,25.26
2017-07-01T10:57:29.262Z,25.68
2017-07-01T10:59:54.061Z,25.06
2017-07-01T11:02:18.878Z,24.07
2017-07-01T11:04:44.395Z,24.46
2017-07-01T11:07:09.520Z,25.58
2017-07-01T11:09:34.564Z,25.3
2017-07-01T11:11:59.062Z,25.14
2017-07-01T11:14:23.566Z,24.19
2017-07-01T11:16:48.148Z,22.4
2017-07-01T11:19:12.585Z,21.99
2017-07-01T11:21:37.100Z,22.12
2017-07-01T11:24:01.818Z,22.53
2017-07-01T11:26:26.313Z,22.89
2017-07-01T11:28:50.854Z,23.13
2017-07-01T11:31:15.595Z,22.73
2017-07-01T11:33:40.606Z,22.18
2017-07-01T11:36:04.871Z,22.98
2017-07-01T11:38:29.769Z,22.78
2017-07-01T11:40:54.301Z,22.93
2017-07-01T11:43:19.474Z,22.92
2017-07-01T11:45:45.045Z,23.17
2017-07-01T11:48:11.904Z,23.95
2017-07-01T11:50:37.586Z,23.95
2017-07-01T11:53:02.348Z,24.09
2017-07-01T11:55:26.639Z,24.48
2017-07-01T11:57:02.970Z,24.5
2017-07-01T11:59:27.370Z,23.77
2017-07-01T12:01:51.779Z,23.56
2017-07-01T12:04:17.078Z,23.21
2017-07-01T12:06:41.439Z,23.23
2017-07-01T12:09:05.905Z,22.99
2017-07-01T12:11:30.390Z,23.82
2017-07-01T12:13:54.676Z,23.56
2017-07-01T12:16:19.963Z,22.88
2017-07-01T12:18:44.644Z,22.25
2017-07-01T12:21:09.094Z,22.16
2017-07-01T12:23:33.478Z,22.21
2017-07-01T12:25:57.819Z,22.73
2017-07-01T12:28:22.077Z,23.26
2017-07-01T12:29:59.044Z,23.85
2017-07-01T12:32:23.448Z,23.89
2017-07-01T12:34:48.056Z,23.67
2017-07-01T12:37:12.626Z,23.34
2017-07-01T12:39:28.820Z,23.37
2017-07-01T12:41:53.804Z,23.32
2017-07-01T12:43:35.642Z,23.44
2017-07-01T12:46:00.890Z,23.32
2017-07-01T12:48:25.514Z,23.59
2017-07-01T12:50:53.196Z,23.44
2017-07-01T12:53:20.775Z,23.69
2017-07-01T12:55:48.589Z,24.09
2017-07-01T12:58:13.141Z,23.2
2017-07-01T13:00:37.616Z,23.82
2017-07-01T13:03:02.724Z,23.39
2017-07-01T13:05:27.558Z,23.64
2017-07-01T13:07:51.885Z,23.7
2017-07-01T13:10:16.332Z,23.56
2017-07-01T13:12:40.930Z,22.86
2017-07-01T13:15:05.294Z,23.08
2017-07-01T13:17:29.696Z,23.4
2017-07-01T13:19:54.105Z,23.16
2017-07-01T13:22:18.264Z,23.99
2017-07-01T13:24:42.540Z,23.74
2017-07-01T13:27:06.885Z,24.22
2017-07-01T13:29:31.207Z,24.61
2017-07-01T13:31:55.523Z,25.68
2017-07-01T13:34:19.899Z,24.78
2017-07-01T13:36:44.470Z,24.62
2017-07-01T13:39:08.774Z,24.47
2017-07-01T13:41:33.151Z,24.19
2017-07-01T13:43:57.565Z,24.28
2017-07-01T13:46:21.960Z,24.43
2017-07-01T13:48:46.352Z,23.58
2017-07-01T13:51:10.745Z,24.36
2017-07-01T13:53:35.174Z,24.66
2017-07-01T13:55:59.562Z,25.29
2017-07-01T13:58:23.994Z,25.19
2017-07-01T14:00:48.435Z,24.86
2017-07-01T14:03:15.581Z,24.85
2017-07-01T14:05:40.107Z,25.29
2017-07-01T14:08:04.497Z,25.01
2017-07-01T14:10:28.957Z,24.66
2017-07-01T14:12:53.545Z,24.06
2017-07-01T14:15:18.018Z,24.37
2017-07-01T14:17:42.487Z,25.03
2017-07-01T14:20:06.844Z,24.66
2017-07-01T14:22:31.439Z,24.66
2017-07-01T14:24:55.902Z,25.3
2017-07-01T14:27:20.352Z,25.41
2017-07-01T14:29:45.016Z,24.88
2017-07-01T14:32:09.287Z,24.19
2017-07-01T14:34:33.928Z,23.99
2017-07-01T14:36:58.246Z,23.82
2017-07-01T14:39:14.287Z,24.66
2017-07-01T14:41:38.881Z,24.88
2017-07-01T14:44:03.430Z,24.34
2017-07-01T14:46:27.930Z,23.79
2017-07-01T14:48:52.408Z,23.76
2017-07-01T14:51:02.928Z,23.69
2017-07-01T14:53:27.422Z,24.01
2017-07-01T14:55:52.003Z,23.91
2017-07-01T14:58:16.350Z,24.1
2017-07-01T15:00:40.704Z,24.31
2017-07-01T15:03:05.276Z,24.31
2017-07-01T15:05:29.677Z,24.74
2017-07-01T15:07:54.140Z,24.62
2017-07-01T15:10:18.573Z,24.48
2017-07-01T15:12:43.200Z,24.47
2017-07-01T15:15:07.416Z,24.89
2017-07-01T15:17:31.722Z,24.36
2017-07-01T15:19:56.369Z,24.28
2017-07-01T15:22:20.643Z,24.47
2017-07-01T15:24:45.099Z,23.99
2017-07-01T15:27:09.568Z,23.71
2017-07-01T15:29:34.184Z,23.58
2017-07-01T15:31:58.681Z,23.21
2017-07-01T15:34:23.070Z,23.16
2017-07-01T15:36:38.929Z,23.06
2017-07-01T15:39:03.352Z,23.01
2017-07-01T15:41:27.704Z,23.44
2017-07-01T15:43:52.137Z,23.48
2017-07-01T15:46:16.362Z,23.39
2017-07-01T15:48:40.637Z,23.16
2017-07-01T15:51:04.956Z,23.08
2017-07-01T15:53:29.216Z,23.4
2017-07-01T15:55:53.522Z,23.18
2017-07-01T15:57:29.300Z,23.32
2017-07-01T15:59:22.241Z,22.93
2017-07-01T16:01:38.096Z,22.52
2017-07-01T16:04:02.353Z,22.77
2017-07-01T16:06:26.659Z,22.91
2017-07-01T16:08:28.982Z,23.2
2017-07-01T16:10:53.452Z,23.21
2017-07-01T16:13:18.095Z,23.16
2017-07-01T16:15:42.310Z,23.37
2017-07-01T16:18:06.694Z,22.77
2017-07-01T16:20:30.996Z,22.8
2017-07-01T16:22:55.220Z,22.1
2017-07-01T16:25:19.417Z,21.84
2017-07-01T16:27:43.544Z,22
2017-07-01T16:30:07.667Z,21.78
2017-07-01T16:32:31.806Z,21.83
2017-07-01T16:34:55.976Z,21.72
2017-07-01T16:37:20.040Z,21.77
2017-07-01T16:39:44.193Z,21.56
2017-07-01T16:42:08.303Z,21.62
2017-07-01T16:44:32.443Z,21.44
2017-07-01T16:46:56.676Z,21.43
2017-07-01T16:49:20.747Z,21.68
2017-07-01T16:51:44.857Z,21.3
2017-07-01T16:54:08.957Z,21.11
2017-07-01T16:56:32.985Z,20.75
2017-07-01T16:58:57.318Z,20.12
2017-07-01T17:01:21.369Z,20.02
2017-07-01T17:03:45.652Z,19.85
2017-07-01T17:06:10.176Z,20
2017-07-01T17:08:34.429Z,20.17
2017-07-01T17:10:58.463Z,20.34
2017-07-01T17:13:22.471Z,20.58
2017-07-01T17:15:46.550Z,20.74
2017-07-01T17:18:10.578Z,20.68
2017-07-01T17:20:34.639Z,20.5
2017-07-01T17:22:58.777Z,20.14
2017-07-01T17:25:23.063Z,20.12
2017-07-01T17:27:47.128Z,19.89
2017-07-01T17:30:11.207Z,19.87
2017-07-01T17:32:35.083Z,19.81
2017-07-01T17:34:59.063Z,19.74
2017-07-01T17:37:23.018Z,19.81
2017-07-01T17:39:47.107Z,19.77
2017-07-01T17:42:11.184Z,19.35
2017-07-01T17:44:35.222Z,19.2
2017-07-01T17:46:59.169Z,19.34
2017-07-01T17:49:23.230Z,19.47
2017-07-01T17:51:47.107Z,19.15
2017-07-01T17:54:11.083Z,19.3
2017-07-01T17:56:35.003Z,19.17
2017-07-01T17:58:59.027Z,19.23
2017-07-01T18:01:22.880Z,19.3
2017-07-01T18:03:50.964Z,19.37
2017-07-01T18:06:06.688Z,19.49
2017-07-01T18:08:22.827Z,19.59
2017-07-01T18:10:46.392Z,19.57
2017-07-01T18:13:10.398Z,19.64
2017-07-01T18:15:35.285Z,19.38
2017-07-01T18:17:59.969Z,19.39
2017-07-01T18:20:23.995Z,19.2
2017-07-01T18:22:48.332Z,19.41
2017-07-01T18:25:12.327Z,19.39
2017-07-01T18:27:36.203Z,19.37
2017-07-01T18:30:00.117Z,19.55
2017-07-01T18:32:24.001Z,19.41
2017-07-01T18:34:48.007Z,19.3
2017-07-01T18:37:12.032Z,19.22
2017-07-01T18:39:36.067Z,19.45
2017-07-01T18:41:59.960Z,19.49
2017-07-01T18:44:10.296Z,19.82
2017-07-01T18:46:34.259Z,19.79
2017-07-01T18:48:58.212Z,19.74
2017-07-01T18:51:22.109Z,19.56
2017-07-01T18:53:46.106Z,19.74
2017-07-01T18:55:22.384Z,19.75
2017-07-01T18:57:46.333Z,19.55
2017-07-01T19:00:10.320Z,19.47
2017-07-01T19:02:34.144Z,19.71
2017-07-01T19:04:49.586Z,19.3
2017-07-01T19:07:13.489Z,19.38
2017-07-01T19:09:37.403Z,19.49
2017-07-01T19:12:01.375Z,19.66
2017-07-01T19:14:26.277Z,19.78
2017-07-01T19:16:50.302Z,19.71
2017-07-01T19:19:14.227Z,19.39
2017-07-01T19:21:38.256Z,19.34
2017-07-01T19:24:02.082Z,19.48
2017-07-01T19:26:26.172Z,19.37
2017-07-01T19:28:50.108Z,19.71
2017-07-01T19:31:14.080Z,19.67
2017-07-01T19:33:37.952Z,19.7
2017-07-01T19:36:01.900Z,19.66
2017-07-01T19:38:25.945Z,19.55
2017-07-01T19:40:49.774Z,19.37
2017-07-01T19:43:05.274Z,19.44
2017-07-01T19:45:29.213Z,19.42
2017-07-01T19:47:05.879Z,19.53
2017-07-01T19:49:30.062Z,19.32
2017-07-01T19:51:54.037Z,19.34
2017-07-01T19:54:18.102Z,19.32
2017-07-01T19:56:41.801Z,19.16
2017-07-01T19:59:06.229Z,19.16
2017-07-01T20:01:30.147Z,19.41
2017-07-01T20:03:53.953Z,19.38
2017-07-01T20:06:17.942Z,19.38
2017-07-01T20:08:41.877Z,19.37
2017-07-01T20:11:05.688Z,19.15
2017-07-01T20:13:29.810Z,19.35
2017-07-01T20:15:53.759Z,19.47
2017-07-01T20:18:17.840Z,19.67
2017-07-01T20:20:41.727Z,19.45
2017-07-01T20:23:05.690Z,19.42
2017-07-01T20:25:29.944Z,19.3
2017-07-01T20:27:06.198Z,19.44
2017-07-01T20:29:30.127Z,19.07
2017-07-01T20:31:54.157Z,19.3
2017-07-01T20:34:18.082Z,19.38
2017-07-01T20:36:41.925Z,19.12
2017-07-01T20:39:05.824Z,19.2
2017-07-01T20:41:29.697Z,19.23
2017-07-01T20:43:53.592Z,19.47
2017-07-01T20:46:17.451Z,19.37
2017-07-01T20:48:41.344Z,19.16
2017-07-01T20:51:05.239Z,18.92
2017-07-01T20:53:29.162Z,18.82
2017-07-01T20:55:53.343Z,18.74
2017-07-01T20:58:17.191Z,18.7
2017-07-01T21:00:40.984Z,18.85
2017-07-01T21:03:04.880Z,18.74
2017-07-01T21:05:28.633Z,18.91
2017-07-01T21:07:52.516Z,18.73
2017-07-01T21:09:28.816Z,18.85
2017-07-01T21:11:44.415Z,19.05
2017-07-01T21:14:08.172Z,18.94
2017-07-01T21:16:32.110Z,18.98
2017-07-01T21:18:55.969Z,18.82
2017-07-01T21:21:19.897Z,18.83
2017-07-01T21:23:43.726Z,18.68
2017-07-01T21:26:07.600Z,18.6
2017-07-01T21:28:31.493Z,18.63
2017-07-01T21:30:55.309Z,18.76
2017-07-01T21:33:19.094Z,18.79
2017-07-01T21:35:42.963Z,18.96
2017-07-01T21:38:06.855Z,18.7
2017-07-01T21:40:30.733Z,18.48
2017-07-01T21:42:54.541Z,18.49
2017-07-01T21:45:18.369Z,18.58
2017-07-01T21:47:42.321Z,18.78
2017-07-01T21:49:57.782Z,18.86
2017-07-01T21:52:21.768Z,18.76
2017-07-01T21:54:46.074Z,18.76
2017-07-01T21:57:09.335Z,18.85
2017-07-01T21:59:33.345Z,18.83
2017-07-01T22:01:44.473Z,18.79
2017-07-01T22:03:21.514Z,18.81
2017-07-01T22:05:45.416Z,18.71
2017-07-01T22:08:09.295Z,18.79
2017-07-01T22:10:33.168Z,18.92
2017-07-01T22:12:57.057Z,18.76
2017-07-01T22:15:20.932Z,18.68
2017-07-01T22:17:45.044Z,18.91
2017-07-01T22:20:08.862Z,18.92
2017-07-01T22:22:33.137Z,18.97
2017-07-01T22:24:58.638Z,19.08
2017-07-01T22:27:22.459Z,18.96
2017-07-01T22:28:58.306Z,18.79
2017-07-01T22:31:22.159Z,18.58
2017-07-01T22:33:37.571Z,18.45
2017-07-01T22:36:01.409Z,18.12
2017-07-01T22:38:25.198Z,18.57
2017-07-01T22:40:49.011Z,18.57
2017-07-01T22:43:12.851Z,18.82
2017-07-01T22:45:36.736Z,18.82
2017-07-01T22:48:00.540Z,18.82
2017-07-01T22:50:24.362Z,18.76
2017-07-01T22:52:48.188Z,18.88
2017-07-01T22:55:11.997Z,18.85
2017-07-01T22:57:35.855Z,18.88
2017-07-01T22:59:59.626Z,18.79
2017-07-01T23:02:23.422Z,18.94
2017-07-01T23:04:47.211Z,18.68
2017-07-01T23:07:11.075Z,18.73
2017-07-01T23:09:26.475Z,18.79
2017-07-01T23:11:50.323Z,18.83
2017-07-01T23:14:14.169Z,18.55
2017-07-01T23:16:38.014Z,18.68
2017-07-01T23:18:53.440Z,18.85
2017-07-01T23:21:17.248Z,18.57
2017-07-01T23:23:41.072Z,18.64
2017-07-01T23:26:04.918Z,18.57
2017-07-01T23:28:28.763Z,18.64
2017-07-01T23:30:52.585Z,18.73
2017-07-01T23:33:16.371Z,18.57
2017-07-01T23:35:40.201Z,18.49
2017-07-01T23:38:03.960Z,18.68
2017-07-01T23:40:27.790Z,18.52
2017-07-01T23:42:43.139Z,18.46
2017-07-01T23:45:07.015Z,18.55
2017-07-01T23:47:30.845Z,18.33
2017-07-01T23:49:54.657Z,18.48
2017-07-01T23:52:18.465Z,18.43
2017-07-01T23:54:19.778Z,18.31
2017-07-01T23:56:43.575Z,18.24
2017-07-01T23:58:58.956Z,18.11
